Time,TemperatureF,DewpointF,PressureIn,WindDirection,WindDirectionDegrees,WindSpeedMPH,WindSpeedGustMPH,Humidity,HourlyPrecipIn,Conditions,Clouds,dailyrainin,SoftwareType,DateUTC
2013-01-16 00:14:00,32.2,32.0,30.09,ENE,67,0.0,0.0,97,0.08,,,0.02,weatherlink.com 1.10,2013-01-16 05:14:00,
2013-01-16 00:29:00,32.1,31.0,30.09,ENE,67,0.0,0.0,97,0.07,,,0.03,weatherlink.com 1.10,2013-01-16 05:29:00,
2013-01-16 00:44:00,32.1,31.0,30.09,ENE,67,0.0,0.0,97,0.06,,,0.04,weatherlink.com 1.10,2013-01-16 05:44:00,
2013-01-16 00:59:00,32.0,31.0,30.09,ENE,67,0.0,1.0,97,0.06,,,0.06,weatherlink.com 1.10,2013-01-16 05:59:00,
2013-01-16 01:14:00,31.9,31.0,30.10,ENE,67,0.0,0.0,97,0.06,,,0.08,weatherlink.com 1.10,2013-01-16 06:14:00,
2013-01-16 01:29:00,31.7,31.0,30.11,NE,49,2.0,3.0,97,0.07,,,0.10,weatherlink.com 1.10,2013-01-16 06:29:00,
2013-01-16 01:44:00,31.4,31.0,30.11,NNW,347,0.0,3.0,97,0.08,,,0.12,weatherlink.com 1.10,2013-01-16 06:44:00,
2013-01-16 01:59:00,31.5,31.0,30.11,NNE,18,0.0,1.0,97,0.06,,,0.13,weatherlink.com 1.10,2013-01-16 06:59:00,
2013-01-16 02:14:00,31.6,31.0,30.10,South,179,0.0,3.0,97,0.06,,,0.14,weatherlink.com 1.10,2013-01-16 07:14:00,
2013-01-16 02:29:00,31.3,31.0,30.08,NNE,30,0.0,4.0,97,0.04,,,0.14,weatherlink.com 1.10,2013-01-16 07:29:00,
2013-01-16 02:44:00,31.3,31.0,30.08,ESE,121,0.0,2.0,97,0.02,,,0.14,weatherlink.com 1.10,2013-01-16 07:44:00,
2013-01-16 02:59:00,31.2,31.0,30.07,SSW,206,3.0,3.0,97,0.01,,,0.14,weatherlink.com 1.10,2013-01-16 07:59:00,
2013-01-16 03:15:00,31.0,30.0,30.06,NNE,20,1.0,3.0,97,0.00,,,0.14,weatherlink.com 1.10,2013-01-16 08:15:00,
2013-01-16 03:30:00,31.0,30.0,30.05,NNE,32,0.0,2.0,97,0.00,,,0.14,weatherlink.com 1.10,2013-01-16 08:30:00,
2013-01-16 03:45:00,31.0,30.0,30.05,NNE,32,0.0,0.0,97,0.00,,,0.14,weatherlink.com 1.10,2013-01-16 08:45:00,
2013-01-16 04:00:00,31.3,31.0,30.05,West,274,0.0,0.0,98,0.00,,,0.14,weatherlink.com 1.10,2013-01-16 09:00:00,
2013-01-16 04:15:00,31.7,31.0,30.02,SE,135,2.0,2.0,97,0.00,,,0.14,weatherlink.com 1.10,2013-01-16 09:15:00,
2013-01-16 04:30:00,31.6,31.0,30.02,SW,214,0.0,3.0,97,0.00,,,0.14,weatherlink.com 1.10,2013-01-16 09:30:00,
2013-01-16 04:45:00,31.4,31.0,30.02,West,271,0.0,2.0,97,0.00,,,0.14,weatherlink.com 1.10,2013-01-16 09:45:00,
2013-01-16 05:00:00,31.3,31.0,30.02,ENE,59,1.0,2.0,97,0.00,,,0.14,weatherlink.com 1.10,2013-01-16 10:00:00,
2013-01-16 05:15:00,31.3,31.0,30.02,SSE,165,0.0,1.0,97,0.00,,,0.14,weatherlink.com 1.10,2013-01-16 10:15:00,
2013-01-16 05:30:00,31.5,31.0,30.01,East,95,1.0,2.0,97,0.01,,,0.15,weatherlink.com 1.10,2013-01-16 10:30:00,
2013-01-16 05:45:00,31.4,31.0,30.02,NE,34,0.0,1.0,97,0.01,,,0.15,weatherlink.com 1.10,2013-01-16 10:45:00,
2013-01-16 06:00:00,31.5,31.0,30.02,ENE,63,0.0,1.0,97,0.01,,,0.15,weatherlink.com 1.10,2013-01-16 11:00:00,
2013-01-16 06:15:00,31.3,31.0,30.02,NE,51,0.0,0.0,97,0.01,,,0.15,weatherlink.com 1.10,2013-01-16 11:15:00,
2013-01-16 06:30:00,31.4,31.0,30.02,NE,51,0.0,0.0,98,0.00,,,0.15,weatherlink.com 1.10,2013-01-16 11:30:00,
2013-01-16 06:45:00,31.3,31.0,30.01,NE,50,0.0,2.0,98,0.01,,,0.16,weatherlink.com 1.10,2013-01-16 11:45:00,
2013-01-16 07:00:00,31.2,31.0,30.01,NE,50,0.0,0.0,98,0.01,,,0.16,weatherlink.com 1.10,2013-01-16 12:00:00,
2013-01-16 07:15:00,31.2,31.0,30.01,North,355,0.0,1.0,97,0.01,,,0.16,weatherlink.com 1.10,2013-01-16 12:15:00,
2013-01-16 07:30:00,31.2,31.0,30.01,NNE,32,0.0,0.0,97,0.01,,,0.16,weatherlink.com 1.10,2013-01-16 12:30:00,
2013-01-16 07:45:00,31.2,31.0,30.01,SSW,198,3.0,3.0,97,0.00,,,0.16,weatherlink.com 1.10,2013-01-16 12:45:00,
2013-01-16 08:00:00,32.4,32.0,30.02,SSE,151,2.0,8.0,98,0.00,,,0.16,weatherlink.com 1.10,2013-01-16 13:00:00,
2013-01-16 08:15:00,32.4,32.0,30.02,ENE,61,0.0,4.0,97,0.01,,,0.17,weatherlink.com 1.10,2013-01-16 13:15:00,
2013-01-16 08:30:00,32.0,31.0,30.03,North,360,0.0,2.0,97,0.01,,,0.17,weatherlink.com 1.10,2013-01-16 13:30:00,
2013-01-16 08:45:00,33.2,33.0,30.04,SW,225,5.0,10.0,97,0.02,,,0.18,weatherlink.com 1.10,2013-01-16 13:45:00,
2013-01-16 09:00:00,33.6,33.0,30.05,SW,218,6.0,8.0,97,0.02,,,0.18,weatherlink.com 1.10,2013-01-16 14:00:00,
2013-01-16 09:15:00,33.7,33.0,30.05,WSW,244,12.0,12.0,95,0.01,,,0.18,weatherlink.com 1.10,2013-01-16 14:15:00,
2013-01-16 09:30:00,33.9,33.0,30.04,WSW,257,0.0,12.0,95,0.01,,,0.18,weatherlink.com 1.10,2013-01-16 14:30:00,
2013-01-16 09:45:00,34.7,33.0,30.04,SW,224,8.0,12.0,94,0.00,,,0.18,weatherlink.com 1.10,2013-01-16 14:45:00,
2013-01-16 10:00:00,35.5,34.0,30.04,SW,216,10.0,17.0,94,0.00,,,0.18,weatherlink.com 1.10,2013-01-16 15:00:00,
2013-01-16 10:15:00,35.9,34.0,30.03,SSW,210,11.0,18.0,94,0.01,,,0.19,weatherlink.com 1.10,2013-01-16 15:15:00,
2013-01-16 10:30:00,35.9,34.0,30.02,SW,232,9.0,19.0,94,0.01,,,0.19,weatherlink.com 1.10,2013-01-16 15:30:00,
2013-01-16 10:45:00,36.3,35.0,30.00,SSW,206,9.0,21.0,94,0.01,,,0.19,weatherlink.com 1.10,2013-01-16 15:45:00,
2013-01-16 11:00:00,37.0,35.0,29.98,SW,219,8.0,20.0,93,0.01,,,0.19,weatherlink.com 1.10,2013-01-16 16:00:00,
2013-01-16 11:15:00,38.5,37.0,29.95,SSW,208,11.0,21.0,93,0.00,,,0.19,weatherlink.com 1.10,2013-01-16 16:15:00,
2013-01-16 11:30:00,39.2,37.0,29.93,SW,225,9.0,17.0,93,0.00,,,0.19,weatherlink.com 1.10,2013-01-16 16:30:00,
2013-01-16 11:45:00,43.1,41.0,29.91,WSW,250,15.0,16.0,93,0.00,,,0.19,weatherlink.com 1.10,2013-01-16 16:45:00,
2013-01-16 12:00:00,44.0,42.0,29.89,West,270,4.0,19.0,93,0.00,,,0.19,weatherlink.com 1.10,2013-01-16 17:00:00,
2013-01-16 12:15:00,46.7,44.0,29.89,NNW,337,1.0,17.0,91,0.00,,,0.19,weatherlink.com 1.10,2013-01-16 17:15:00,
2013-01-16 12:31:00,48.8,45.0,29.89,WNW,294,3.0,18.0,86,0.00,,,0.19,weatherlink.com 1.10,2013-01-16 17:31:00,
2013-01-16 12:46:00,49.4,44.0,29.87,NNE,18,2.0,22.0,82,0.00,,,0.19,weatherlink.com 1.10,2013-01-16 17:46:00,
2013-01-16 13:02:00,49.9,44.0,29.85,NW,326,6.0,21.0,79,0.00,,,0.19,weatherlink.com 1.10,2013-01-16 18:02:00,
2013-01-16 13:16:00,49.7,43.0,29.84,NE,53,8.0,22.0,79,0.00,,,0.19,weatherlink.com 1.10,2013-01-16 18:16:00,
2013-01-16 13:31:00,49.6,43.0,29.86,East,98,8.0,10.0,79,0.00,,,0.19,weatherlink.com 1.10,2013-01-16 18:31:00,
2013-01-16 13:46:00,48.4,43.0,29.86,SW,223,12.0,24.0,81,0.00,,,0.19,weatherlink.com 1.10,2013-01-16 18:46:00,
2013-01-16 14:01:00,46.5,42.0,29.85,SE,131,4.0,19.0,84,0.00,,,0.19,weatherlink.com 1.10,2013-01-16 19:01:00,
2013-01-16 14:16:00,48.9,43.0,29.86,South,182,4.0,21.0,81,0.00,,,0.19,weatherlink.com 1.10,2013-01-16 19:16:00,
2013-01-16 14:31:00,48.9,43.0,29.87,NNE,23,4.0,16.0,81,0.00,,,0.19,weatherlink.com 1.10,2013-01-16 19:31:00,
2013-01-16 14:46:00,48.1,43.0,29.87,SSW,204,20.0,22.0,83,0.00,,,0.19,weatherlink.com 1.10,2013-01-16 19:46:00,
2013-01-16 15:01:00,47.2,43.0,29.87,SW,224,12.0,22.0,86,0.00,,,0.19,weatherlink.com 1.10,2013-01-16 20:01:00,
2013-01-16 15:16:00,46.8,43.0,29.89,SSW,211,14.0,24.0,86,0.00,,,0.19,weatherlink.com 1.10,2013-01-16 20:16:00,
2013-01-16 15:31:00,46.6,43.0,29.90,SW,225,13.0,25.0,87,0.00,,,0.19,weatherlink.com 1.10,2013-01-16 20:31:00,
2013-01-16 15:46:00,44.9,42.0,29.90,SW,229,15.0,20.0,90,0.00,,,0.19,weatherlink.com 1.10,2013-01-16 20:46:00,
2013-01-16 16:01:00,44.4,42.0,29.90,SW,221,15.0,15.0,91,0.00,,,0.19,weatherlink.com 1.10,2013-01-16 21:01:00,
2013-01-16 16:16:00,45.0,42.0,29.90,SW,214,8.0,14.0,90,0.00,,,0.19,weatherlink.com 1.10,2013-01-16 21:16:00,
2013-01-16 16:31:00,45.0,42.0,29.93,WSW,243,10.0,13.0,90,0.00,,,0.19,weatherlink.com 1.10,2013-01-16 21:31:00,
2013-01-16 16:46:00,45.1,42.0,29.94,North,5,0.0,8.0,89,0.00,,,0.19,weatherlink.com 1.10,2013-01-16 21:46:00,
2013-01-16 17:01:00,44.5,42.0,29.94,East,88,1.0,4.0,91,0.00,,,0.19,weatherlink.com 1.10,2013-01-16 22:01:00,
2013-01-16 17:16:00,44.1,42.0,29.95,NE,46,0.0,3.0,92,0.00,,,0.19,weatherlink.com 1.10,2013-01-16 22:16:00,
2013-01-16 17:31:00,45.2,43.0,29.95,SW,216,3.0,7.0,91,0.00,,,0.19,weatherlink.com 1.10,2013-01-16 22:31:00,
2013-01-16 17:46:00,47.2,43.0,29.96,SE,144,5.0,8.0,85,0.00,,,0.19,weatherlink.com 1.10,2013-01-16 22:46:00,
2013-01-16 18:01:00,47.3,42.0,29.94,South,172,4.0,7.0,83,0.00,,,0.19,weatherlink.com 1.10,2013-01-16 23:01:00,
2013-01-16 18:16:00,47.0,43.0,29.93,South,188,5.0,7.0,85,0.00,,,0.19,weatherlink.com 1.10,2013-01-16 23:16:00,
2013-01-16 18:31:00,47.6,42.0,29.96,South,190,4.0,18.0,80,0.00,,,0.19,weatherlink.com 1.10,2013-01-16 23:31:00,
2013-01-16 18:46:00,47.0,41.0,29.95,SSW,209,6.0,15.0,81,0.00,,,0.19,weatherlink.com 1.10,2013-01-16 23:46:00,
2013-01-16 19:01:00,46.2,41.0,29.97,SW,232,2.0,15.0,82,0.00,,,0.19,weatherlink.com 1.10,2013-01-17 00:01:00,
2013-01-16 19:16:00,45.8,41.0,29.98,SSW,211,4.0,15.0,84,0.00,,,0.19,weatherlink.com 1.10,2013-01-17 00:16:00,
2013-01-16 19:31:00,45.1,42.0,29.96,SSE,159,7.0,12.0,88,0.00,,,0.19,weatherlink.com 1.10,2013-01-17 00:31:00,
2013-01-16 19:46:00,44.4,42.0,29.96,South,188,8.0,12.0,90,0.00,,,0.19,weatherlink.com 1.10,2013-01-17 00:46:00,
2013-01-16 20:01:00,45.1,42.0,29.97,West,264,8.0,18.0,87,0.00,,,0.19,weatherlink.com 1.10,2013-01-17 01:01:00,
2013-01-16 20:16:00,45.1,41.0,29.97,South,186,9.0,18.0,85,0.00,,,0.19,weatherlink.com 1.10,2013-01-17 01:16:00,
2013-01-16 20:31:00,44.9,41.0,29.98,SSW,210,5.0,16.0,86,0.00,,,0.19,weatherlink.com 1.10,2013-01-17 01:31:00,
2013-01-16 20:46:00,45.5,40.0,29.96,West,267,1.0,15.0,82,0.00,,,0.19,weatherlink.com 1.10,2013-01-17 01:46:00,
2013-01-16 21:01:00,45.5,41.0,29.97,SSW,207,6.0,16.0,85,0.00,,,0.19,weatherlink.com 1.10,2013-01-17 02:01:00,
2013-01-16 21:16:00,43.8,41.0,29.98,SW,226,10.0,15.0,91,0.00,,,0.19,weatherlink.com 1.10,2013-01-17 02:16:00,
2013-01-16 21:31:00,43.6,41.0,29.96,SSW,200,3.0,12.0,90,0.00,,,0.19,weatherlink.com 1.10,2013-01-17 02:31:00,
2013-01-16 21:46:00,43.5,41.0,29.97,WSW,238,11.0,14.0,89,0.00,,,0.19,weatherlink.com 1.10,2013-01-17 02:46:00,
2013-01-16 22:01:00,43.6,40.0,29.97,SSW,205,8.0,16.0,88,0.00,,,0.19,weatherlink.com 1.10,2013-01-17 03:01:00,
2013-01-16 22:16:00,43.4,40.0,29.96,SW,229,13.0,16.0,88,0.00,,,0.19,weatherlink.com 1.10,2013-01-17 03:16:00,
2013-01-16 22:31:00,44.2,39.0,29.95,SW,221,9.0,17.0,82,0.00,,,0.19,weatherlink.com 1.10,2013-01-17 03:31:00,
2013-01-16 22:46:00,44.3,39.0,29.96,SW,236,8.0,18.0,80,0.00,,,0.19,weatherlink.com 1.10,2013-01-17 03:46:00,
2013-01-16 23:01:00,44.8,39.0,29.95,SW,215,7.0,18.0,79,0.00,,,0.19,weatherlink.com 1.10,2013-01-17 04:01:00,
2013-01-16 23:16:00,44.8,38.0,29.95,SW,235,10.0,20.0,78,0.00,,,0.19,weatherlink.com 1.10,2013-01-17 04:16:00,
2013-01-16 23:31:00,43.9,39.0,29.95,WSW,242,3.0,16.0,83,0.00,,,0.19,weatherlink.com 1.10,2013-01-17 04:31:00,
2013-01-16 23:46:00,42.8,39.0,29.95,SSW,200,7.0,15.0,87,0.00,,,0.19,weatherlink.com 1.10,2013-01-17 04:46:00,